TimeMDT,TemperatureF,Dew PointF,Humidity,Sea Level PressureIn,VisibilityMPH,Wind Direction,Wind SpeedMPH,Gust SpeedMPH,PrecipitationIn,Events,Conditions,WindDirDegrees,DateUTC
12:53 AM,60.1,19.9,21,29.80,10.0,SSW,4.6,-,N/A,,Overcast,200,2013-05-06 06:53:00
1:53 AM,60.1,30.0,32,29.80,10.0,NE,4.6,-,N/A,,Overcast,40,2013-05-06 07:53:00
2:53 AM,59.0,30.0,33,29.81,10.0,Calm,Calm,-,N/A,,Overcast,0,2013-05-06 08:53:00
3:53 AM,55.9,30.9,39,29.80,10.0,ENE,4.6,-,N/A,,Partly Cloudy,70,2013-05-06 09:53:00
4:53 AM,57.0,32.0,39,29.79,10.0,Variable,3.5,-,N/A,,Scattered Clouds,0,2013-05-06 10:53:00
5:53 AM,57.9,33.1,39,29.79,10.0,ENE,11.5,20.7,N/A,,Overcast,70,2013-05-06 11:53:00
6:53 AM,57.0,34.0,42,29.80,10.0,East,9.2,-,N/A,,Mostly Cloudy,80,2013-05-06 12:53:00
7:53 AM,59.0,34.0,39,29.81,10.0,East,3.5,-,N/A,,Clear,100,2013-05-06 13:53:00
8:53 AM,62.1,33.1,34,29.82,10.0,SE,8.1,-,N/A,,Clear,140,2013-05-06 14:53:00
9:53 AM,63.0,33.1,33,29.81,10.0,South,8.1,-,N/A,,Mostly Cloudy,170,2013-05-06 15:53:00
10:53 AM,66.0,30.9,27,29.79,10.0,Variable,3.5,-,N/A,,Mostly Cloudy,0,2013-05-06 16:53:00
11:53 AM,68.0,30.9,25,29.77,10.0,WSW,16.1,20.7,N/A,,Mostly Cloudy,250,2013-05-06 17:53:00
12:53 PM,66.0,34.0,30,29.77,10.0,West,19.6,28.8,N/A,,Mostly Cloudy,270,2013-05-06 18:53:00
1:53 PM,62.1,36.0,38,29.80,10.0,SSW,18.4,-,N/A,,Mostly Cloudy,210,2013-05-06 19:53:00
2:53 PM,61.0,35.1,38,29.81,10.0,SSW,16.1,19.6,N/A,,Mostly Cloudy,200,2013-05-06 20:53:00
3:53 PM,57.9,37.9,47,29.83,10.0,West,9.2,-,N/A,,Mostly Cloudy,270,2013-05-06 21:53:00
4:53 PM,57.9,37.0,46,29.84,10.0,NNW,3.5,-,N/A,,Overcast,340,2013-05-06 22:53:00
5:53 PM,53.1,46.0,77,29.88,7.0,NW,6.9,-,0.00,Rain,Light Rain,320,2013-05-06 23:53:00
6:53 PM,50.0,46.0,86,29.90,10.0,North,9.2,-,0.03,Rain,Light Rain,10,2013-05-07 00:53:00
7:53 PM,50.0,46.0,86,29.89,10.0,NNE,4.6,-,0.01,,Mostly Cloudy,30,2013-05-07 01:53:00
8:53 PM,48.9,46.9,93,29.89,10.0,SE,6.9,-,N/A,,Clear,140,2013-05-07 02:53:00
9:53 PM,48.0,46.9,96,29.92,10.0,ESE,5.8,-,N/A,,Overcast,120,2013-05-07 03:53:00
10:53 PM,48.9,48.0,97,29.93,10.0,Calm,Calm,-,N/A,,Overcast,0,2013-05-07 04:53:00
11:53 PM,48.9,48.0,97,29.92,10.0,East,10.4,-,0.01,,Overcast,100,2013-05-07 05:53:00